Terminal Aerodrome Forecast
Issued by NWS

Home | Current Version | Previous Version | Graphics & Text | Print | Product List | Glossary On
Versions: 1 2 3 4 5 6 7 8 9 10 11 12 13 14 15 16 17 18 19 20 21 22 23 24 25
956
FTUS43 KABR 041733
TAFPIR
TAF
KPIR 041733Z 0418/0518 27008KT P6SM SCT200
     FM042200 VRB06KT P6SM FEW200
     FM051400 28009KT P6SM BKN070
     FM051600 30013KT P6SM BKN040
     FM051700 31016KT P6SM BKN030=

USA.gov is the U.S. government's official web portal to all federal, state and local government web resources and services.